createdAt,value
2019-05-02T00:00:10.911Z,993.13
2019-05-02T00:01:11.110Z,993.18
2019-05-02T00:02:10.898Z,993.25
2019-05-02T00:03:10.877Z,993.15
2019-05-02T00:04:12.390Z,993.19
2019-05-02T00:05:11.855Z,993.22
2019-05-02T00:06:10.853Z,993.12
2019-05-02T00:07:14.553Z,993.13
2019-05-02T00:08:11.817Z,993.23
2019-05-02T00:09:11.193Z,993.13
2019-05-02T00:10:10.795Z,993.15
2019-05-02T00:11:10.788Z,993.10
2019-05-02T00:12:10.773Z,993.07
2019-05-02T00:13:10.846Z,993.04
2019-05-02T00:14:10.776Z,993.09
2019-05-02T00:15:10.738Z,993.11
2019-05-02T00:16:14.195Z,993.04
2019-05-02T00:17:10.730Z,993.10
2019-05-02T00:18:10.704Z,993.12
2019-05-02T00:19:14.001Z,993.03
2019-05-02T00:20:10.679Z,993.02
2019-05-02T00:21:10.666Z,993.02
2019-05-02T00:22:12.218Z,993.04
2019-05-02T00:23:11.643Z,993.03
2019-05-02T00:24:10.633Z,993.05
2019-05-02T00:25:11.165Z,993.05
2019-05-02T00:26:10.609Z,993.04
2019-05-02T00:27:10.599Z,993.01
2019-05-02T00:28:12.379Z,993.01
2019-05-02T00:29:10.573Z,992.98
2019-05-02T00:30:10.570Z,992.97
2019-05-02T00:31:11.631Z,992.97
2019-05-02T00:32:10.537Z,992.93
2019-05-02T00:33:10.620Z,992.91
2019-05-02T00:34:10.516Z,992.92
2019-05-02T00:35:10.502Z,992.95
2019-05-02T00:36:10.494Z,993.05
2019-05-02T00:37:10.545Z,992.98
2019-05-02T00:38:10.469Z,992.91
2019-05-02T00:39:13.882Z,993.03
2019-05-02T00:40:10.454Z,992.90
2019-05-02T00:41:10.437Z,992.95
2019-05-02T00:42:12.763Z,992.98
2019-05-02T00:43:10.485Z,992.94
2019-05-02T00:44:11.035Z,992.97
2019-05-02T00:45:10.390Z,992.88
2019-05-02T00:46:10.379Z,992.92
2019-05-02T00:47:10.904Z,992.96
2019-05-02T00:48:10.355Z,992.85
2019-05-02T00:49:10.555Z,992.80
2019-05-02T00:50:11.392Z,992.81
2019-05-02T00:51:10.328Z,992.79
2019-05-02T00:52:10.309Z,992.81
2019-05-02T00:53:12.022Z,992.79
2019-05-02T00:54:10.286Z,992.81
2019-05-02T00:55:10.486Z,992.83
2019-05-02T00:56:10.427Z,992.75
2019-05-02T00:57:10.252Z,992.80
2019-05-02T00:58:10.241Z,992.79
2019-05-02T00:59:10.228Z,992.76
2019-05-02T01:00:13.336Z,992.83
2019-05-02T01:01:11.271Z,992.79
2019-05-02T01:02:10.194Z,992.78
2019-05-02T01:03:11.241Z,992.78
2019-05-02T01:04:11.183Z,992.73
2019-05-02T01:05:10.165Z,992.78
2019-05-02T01:06:14.428Z,992.68
2019-05-02T01:07:11.341Z,992.71
2019-05-02T01:08:10.125Z,992.68
2019-05-02T01:09:11.156Z,992.71
2019-05-02T01:10:10.104Z,992.75
2019-05-02T01:11:10.091Z,992.71
2019-05-02T01:12:10.092Z,992.73
2019-05-02T01:13:10.129Z,992.66
2019-05-02T01:14:10.058Z,992.66
2019-05-02T01:15:10.056Z,992.67
2019-05-02T01:16:10.039Z,992.67
2019-05-02T01:17:10.024Z,992.62
2019-05-02T01:18:10.012Z,992.65
2019-05-02T01:19:12.199Z,992.67
2019-05-02T01:20:10.992Z,992.58
2019-05-02T01:21:09.980Z,992.65
2019-05-02T01:22:10.548Z,992.58
2019-05-02T01:23:10.971Z,992.64
2019-05-02T01:24:09.945Z,992.64
2019-05-02T01:25:15.341Z,992.65
2019-05-02T01:26:10.926Z,992.69
2019-05-02T01:27:09.912Z,992.64
2019-05-02T01:28:12.615Z,992.68
2019-05-02T01:29:10.897Z,992.62
2019-05-02T01:30:09.881Z,992.64
2019-05-02T01:31:13.112Z,992.59
2019-05-02T01:32:10.855Z,992.61
2019-05-02T01:33:09.846Z,992.63
2019-05-02T01:34:13.100Z,992.63
2019-05-02T01:35:10.822Z,992.62
2019-05-02T01:36:09.811Z,992.55
2019-05-02T01:37:11.941Z,992.58
2019-05-02T01:38:10.789Z,992.61
2019-05-02T01:39:09.785Z,992.57
2019-05-02T01:40:13.043Z,992.52
2019-05-02T01:41:10.762Z,992.53
2019-05-02T01:42:09.743Z,992.54
2019-05-02T01:43:09.804Z,992.58
2019-05-02T01:44:09.725Z,992.55
2019-05-02T01:45:11.136Z,992.56
2019-05-02T01:46:09.699Z,992.54
2019-05-02T01:47:09.688Z,992.50
2019-05-02T01:48:10.922Z,992.47
2019-05-02T01:49:09.725Z,992.51
2019-05-02T01:50:09.651Z,992.49
2019-05-02T01:51:11.977Z,992.48
2019-05-02T01:52:09.629Z,992.48
2019-05-02T01:53:09.618Z,992.56
2019-05-02T01:54:11.259Z,992.54
2019-05-02T01:55:09.668Z,992.56
2019-05-02T01:56:09.581Z,992.52
2019-05-02T01:57:10.046Z,992.48
2019-05-02T01:58:09.573Z,992.48
2019-05-02T01:59:09.564Z,992.50
2019-05-02T02:00:11.433Z,992.50
2019-05-02T02:01:09.606Z,992.47
2019-05-02T02:02:09.529Z,992.39
2019-05-02T02:03:10.396Z,992.42
2019-05-02T02:04:09.504Z,992.45
2019-05-02T02:05:09.493Z,992.38
2019-05-02T02:06:10.159Z,992.34
2019-05-02T02:07:09.534Z,992.40
2019-05-02T02:08:09.466Z,992.37
2019-05-02T02:09:09.896Z,992.44
2019-05-02T02:10:09.436Z,992.31
2019-05-02T02:11:09.427Z,992.43
2019-05-02T02:12:11.280Z,992.36
2019-05-02T02:13:09.468Z,992.28
2019-05-02T02:14:13.058Z,992.29
2019-05-02T02:15:10.377Z,992.34
2019-05-02T02:16:09.386Z,992.37
2019-05-02T02:17:10.176Z,992.38
2019-05-02T02:18:10.408Z,992.34
2019-05-02T02:19:09.341Z,992.30
2019-05-02T02:20:09.758Z,992.32
2019-05-02T02:21:09.313Z,992.29
2019-05-02T02:22:09.302Z,992.34
2019-05-02T02:23:10.164Z,992.35
2019-05-02T02:24:09.345Z,992.33
2019-05-02T02:25:09.270Z,992.31
2019-05-02T02:26:12.024Z,992.29
2019-05-02T02:27:09.250Z,992.25
2019-05-02T02:28:09.233Z,992.25
2019-05-02T02:29:09.367Z,992.24
2019-05-02T02:30:09.282Z,992.26
2019-05-02T02:31:09.220Z,992.27
2019-05-02T02:32:09.189Z,992.21
2019-05-02T02:33:09.820Z,992.29
2019-05-02T02:34:09.169Z,992.19
2019-05-02T02:35:10.097Z,992.19
2019-05-02T02:36:09.213Z,992.25
2019-05-02T02:37:13.139Z,992.24
2019-05-02T02:38:10.122Z,992.24
2019-05-02T02:39:14.555Z,992.17
2019-05-02T02:40:10.099Z,992.17
2019-05-02T02:41:13.307Z,992.24
2019-05-02T02:42:10.293Z,992.16
2019-05-02T02:43:30.007Z,992.16
2019-05-02T02:44:10.061Z,992.11
2019-05-02T02:45:13.020Z,992.16
2019-05-02T02:46:10.029Z,992.11
2019-05-02T02:47:11.819Z,992.20
2019-05-02T02:48:10.217Z,992.11
2019-05-02T02:49:14.007Z,992.14
2019-05-02T02:50:10.001Z,992.15
2019-05-02T02:51:08.975Z,992.14
2019-05-02T02:52:08.964Z,992.17
2019-05-02T02:53:08.951Z,992.15
2019-05-02T02:54:09.151Z,992.14
2019-05-02T02:55:08.953Z,992.18
2019-05-02T02:56:08.921Z,992.10
2019-05-02T02:57:20.538Z,992.14
2019-05-02T02:58:09.895Z,992.17
2019-05-02T02:59:08.885Z,992.21
2019-05-02T03:00:11.048Z,992.13
2019-05-02T03:01:08.865Z,992.18
2019-05-02T03:02:11.733Z,992.08
2019-05-02T03:03:08.875Z,992.11
2019-05-02T03:04:11.784Z,992.05
2019-05-02T03:05:08.823Z,992.09
2019-05-02T03:06:08.879Z,992.06
2019-05-02T03:07:08.792Z,992.05
2019-05-02T03:08:08.781Z,992.04
2019-05-02T03:09:08.787Z,992.10
2019-05-02T03:10:08.809Z,992.15
2019-05-02T03:11:08.746Z,992.08
2019-05-02T03:12:08.948Z,992.09
2019-05-02T03:13:14.797Z,992.10
2019-05-02T03:14:09.950Z,992.09
2019-05-02T03:15:08.705Z,992.08
2019-05-02T03:16:09.399Z,992.09
2019-05-02T03:17:08.679Z,992.06
2019-05-02T03:18:08.877Z,992.14
2019-05-02T03:19:14.459Z,992.12
2019-05-02T03:20:09.655Z,992.08
2019-05-02T03:21:13.496Z,992.05
2019-05-02T03:22:09.622Z,992.05
2019-05-02T03:23:08.844Z,992.08
2019-05-02T03:24:09.678Z,992.06
2019-05-02T03:25:08.589Z,992.06
2019-05-02T03:26:14.959Z,992.09
2019-05-02T03:27:09.567Z,992.05
2019-05-02T03:28:17.850Z,992.04
2019-05-02T03:29:09.542Z,992.07
2019-05-02T03:30:08.601Z,992.15
2019-05-02T03:31:23.919Z,992.16
2019-05-02T03:32:16.063Z,992.12
2019-05-02T03:33:11.845Z,992.04
2019-05-02T03:34:08.485Z,992.07
2019-05-02T03:35:08.479Z,992.08
2019-05-02T03:36:26.284Z,992.04
2019-05-02T03:37:10.852Z,992.13
2019-05-02T03:38:08.443Z,992.05
2019-05-02T03:39:15.059Z,992.11
2019-05-02T03:40:09.430Z,992.11
2019-05-02T03:41:13.258Z,992.02
2019-05-02T03:42:09.614Z,992.10
2019-05-02T03:43:08.386Z,992.07
2019-05-02T03:44:11.601Z,992.08
2019-05-02T03:45:09.368Z,992.02
2019-05-02T03:46:13.664Z,991.98
2019-05-02T03:47:09.333Z,992.05
2019-05-02T03:48:08.386Z,991.99
2019-05-02T03:49:09.661Z,991.99
2019-05-02T03:50:09.553Z,991.97
2019-05-02T03:51:19.821Z,992.06
2019-05-02T03:52:09.277Z,992.05
2019-05-02T03:53:08.269Z,992.03
2019-05-02T03:54:10.379Z,991.99
2019-05-02T03:55:08.245Z,992.02
2019-05-02T03:56:11.366Z,991.97
2019-05-02T03:57:09.218Z,992.03
2019-05-02T03:58:14.008Z,992.07
2019-05-02T03:59:09.262Z,992.01
2019-05-02T04:00:13.932Z,992.01
2019-05-02T04:01:09.173Z,992.01
2019-05-02T04:02:14.062Z,992.03
2019-05-02T04:03:09.148Z,992.00
2019-05-02T04:04:08.138Z,991.99
2019-05-02T04:05:08.203Z,992.09
2019-05-02T04:06:14.103Z,992.02
2019-05-02T04:07:09.123Z,992.01
2019-05-02T04:08:19.874Z,991.99
2019-05-02T04:09:09.082Z,991.98
2019-05-02T04:10:13.423Z,992.04
2019-05-02T04:11:09.120Z,992.06
2019-05-02T04:12:17.822Z,992.04
2019-05-02T04:13:09.035Z,992.04
2019-05-02T04:14:15.153Z,992.06
2019-05-02T04:15:09.767Z,992.10
2019-05-02T04:16:14.655Z,992.07
2019-05-02T04:17:09.223Z,992.09
2019-05-02T04:18:08.425Z,992.15
2019-05-02T04:19:08.968Z,992.15
2019-05-02T04:20:10.181Z,992.12
2019-05-02T04:21:07.942Z,992.19
2019-05-02T04:22:11.339Z,992.21
2019-05-02T04:23:07.984Z,992.16
2019-05-02T04:24:13.716Z,992.12
2019-05-02T04:25:08.899Z,992.11
2019-05-02T04:26:12.684Z,992.19
2019-05-02T04:27:08.877Z,992.18
2019-05-02T04:28:12.071Z,992.16
2019-05-02T04:29:08.915Z,992.17
2019-05-02T04:30:11.251Z,992.27
2019-05-02T04:31:08.828Z,992.18
2019-05-02T04:32:11.464Z,992.17
2019-05-02T04:33:08.803Z,992.25
2019-05-02T04:34:15.796Z,992.21
2019-05-02T04:35:08.847Z,992.18
2019-05-02T04:36:15.188Z,992.23
2019-05-02T04:37:08.762Z,992.28
2019-05-02T04:38:19.011Z,992.26
2019-05-02T04:39:15.161Z,992.24
2019-05-02T04:40:12.192Z,992.29
2019-05-02T04:41:09.314Z,992.28
2019-05-02T04:42:12.971Z,992.26
2019-05-02T04:43:11.432Z,992.24
2019-05-02T04:44:09.055Z,992.17
2019-05-02T04:45:24.133Z,992.24
2019-05-02T04:46:18.079Z,992.20
2019-05-02T04:47:16.560Z,992.26
2019-05-02T04:48:08.695Z,992.23
2019-05-02T04:49:09.220Z,992.24
2019-05-02T04:50:17.637Z,992.16
2019-05-02T04:51:14.211Z,992.20
2019-05-02T04:52:12.443Z,992.22
2019-05-02T04:53:08.764Z,992.21
2019-05-02T04:54:09.203Z,992.22
2019-05-02T04:55:19.716Z,992.19
2019-05-02T04:56:10.678Z,992.19
2019-05-02T04:57:08.413Z,992.24
2019-05-02T04:58:08.340Z,992.17
2019-05-02T04:59:13.818Z,992.21
2019-05-02T05:00:11.801Z,992.22
2019-05-02T05:01:09.888Z,992.29
2019-05-02T05:02:09.094Z,992.33
2019-05-02T05:03:15.656Z,992.23
2019-05-02T05:04:08.517Z,992.26
2019-05-02T05:05:08.221Z,992.28
2019-05-02T05:06:12.262Z,992.18
2019-05-02T05:07:09.279Z,992.23
2019-05-02T05:08:07.882Z,992.28
2019-05-02T05:09:12.681Z,992.32
2019-05-02T05:10:08.590Z,992.24
2019-05-02T05:11:07.825Z,992.33
2019-05-02T05:12:07.362Z,992.34
2019-05-02T05:13:07.789Z,992.32
2019-05-02T05:14:09.932Z,992.33
2019-05-02T05:15:07.836Z,992.28
2019-05-02T05:16:11.157Z,992.27
2019-05-02T05:17:08.306Z,992.39
2019-05-02T05:18:10.503Z,992.20
2019-05-02T05:19:08.275Z,992.31
2019-05-02T05:20:13.690Z,992.33
2019-05-02T05:21:10.660Z,992.36
2019-05-02T05:22:11.690Z,992.38
2019-05-02T05:23:08.238Z,992.37
2019-05-02T05:24:07.720Z,992.34
2019-05-02T05:25:07.579Z,992.40
2019-05-02T05:26:07.444Z,992.33
2019-05-02T05:27:08.244Z,992.36
2019-05-02T05:28:09.103Z,992.36
2019-05-02T05:29:08.252Z,992.33
2019-05-02T05:30:11.232Z,992.30
2019-05-02T05:31:08.141Z,992.39
2019-05-02T05:32:09.891Z,992.31
2019-05-02T05:33:10.057Z,992.35
2019-05-02T05:34:07.790Z,992.34
2019-05-02T05:35:09.106Z,992.24
2019-05-02T05:36:08.408Z,992.30
2019-05-02T05:37:11.647Z,992.36
2019-05-02T05:38:08.269Z,992.32
2019-05-02T05:39:08.631Z,992.29
2019-05-02T05:40:08.399Z,992.32
2019-05-02T05:41:09.007Z,992.28
2019-05-02T05:42:10.575Z,992.30
2019-05-02T05:43:13.715Z,992.27
2019-05-02T05:44:08.059Z,992.26
2019-05-02T05:45:09.846Z,992.30
2019-05-02T05:46:10.668Z,992.22
2019-05-02T05:47:07.397Z,992.27
2019-05-02T05:48:08.280Z,992.25
2019-05-02T05:49:10.498Z,992.20
2019-05-02T05:50:08.369Z,992.24
2019-05-02T05:51:07.368Z,992.21
2019-05-02T05:52:08.039Z,992.19
2019-05-02T05:53:07.903Z,992.17
2019-05-02T05:54:07.739Z,992.21
2019-05-02T05:55:07.840Z,992.18
2019-05-02T05:56:07.995Z,992.18
2019-05-02T05:57:07.597Z,992.20
2019-05-02T05:58:13.161Z,992.31
2019-05-02T05:59:07.961Z,992.24
2019-05-02T06:00:11.845Z,992.18
2019-05-02T06:01:10.296Z,992.26
2019-05-02T06:02:13.242Z,992.23
2019-05-02T06:03:14.075Z,992.16
2019-05-02T06:04:08.114Z,992.17
2019-05-02T06:05:07.919Z,992.13
2019-05-02T06:06:08.254Z,992.16
2019-05-02T06:07:07.338Z,992.19
2019-05-02T06:08:08.153Z,992.16
2019-05-02T06:09:06.704Z,992.19
2019-05-02T06:10:07.839Z,992.14
2019-05-02T06:11:06.685Z,992.19
2019-05-02T06:12:06.686Z,992.16
2019-05-02T06:13:11.009Z,992.10
2019-05-02T06:14:07.645Z,992.05
2019-05-02T06:15:06.636Z,992.09
2019-05-02T06:16:10.501Z,992.11
2019-05-02T06:17:07.614Z,992.02
2019-05-02T06:18:06.600Z,992.08
2019-05-02T06:19:06.665Z,992.07
2019-05-02T06:20:06.578Z,992.09
2019-05-02T06:21:08.702Z,992.05
2019-05-02T06:22:06.562Z,992.08
2019-05-02T06:23:06.553Z,992.08
2019-05-02T06:24:06.550Z,991.98
2019-05-02T06:25:09.525Z,991.99
2019-05-02T06:26:12.707Z,992.08
2019-05-02T06:27:07.500Z,992.14
2019-05-02T06:28:06.848Z,992.04
2019-05-02T06:29:06.478Z,992.06
2019-05-02T06:30:06.466Z,992.08
2019-05-02T06:31:07.238Z,992.11
2019-05-02T06:32:06.440Z,992.10
2019-05-02T06:33:06.430Z,991.97
2019-05-02T06:34:07.119Z,992.11
2019-05-02T06:35:06.406Z,992.09
2019-05-02T06:36:06.394Z,992.14
2019-05-02T06:37:08.267Z,992.11
2019-05-02T06:38:07.370Z,992.11
2019-05-02T06:39:06.382Z,992.19
2019-05-02T06:40:08.155Z,992.08
2019-05-02T06:41:06.336Z,992.09
2019-05-02T06:42:06.324Z,992.12
2019-05-02T06:43:09.649Z,992.12
2019-05-02T06:44:06.302Z,992.16
2019-05-02T06:45:06.290Z,992.09
2019-05-02T06:46:15.885Z,992.03
2019-05-02T06:47:07.265Z,992.09
2019-05-02T06:48:06.258Z,992.09
2019-05-02T06:49:06.313Z,991.99
2019-05-02T06:50:06.235Z,992.06
2019-05-02T06:51:10.951Z,992.00
2019-05-02T06:52:07.212Z,992.02
2019-05-02T06:53:09.620Z,992.07
2019-05-02T06:54:06.189Z,992.05
2019-05-02T06:55:06.387Z,992.03
2019-05-02T06:56:08.022Z,992.06
2019-05-02T06:57:07.155Z,992.00
2019-05-02T06:58:08.130Z,991.97
2019-05-02T06:59:06.130Z,992.00
2019-05-02T07:00:06.725Z,991.98
2019-05-02T07:01:06.192Z,992.05
2019-05-02T07:02:06.096Z,992.02
2019-05-02T07:03:10.158Z,992.06
2019-05-02T07:04:07.077Z,992.02
2019-05-02T07:05:06.063Z,992.00
2019-05-02T07:06:07.638Z,991.96
2019-05-02T07:07:06.326Z,992.03
2019-05-02T07:08:11.201Z,992.00
2019-05-02T07:09:07.141Z,992.00
2019-05-02T07:10:07.505Z,991.99
2019-05-02T07:11:05.994Z,991.99
2019-05-02T07:12:09.875Z,991.88
2019-05-02T07:13:10.724Z,991.97
2019-05-02T07:14:13.195Z,991.95
2019-05-02T07:15:08.354Z,991.94
2019-05-02T07:16:10.564Z,991.95
2019-05-02T07:17:06.926Z,992.01
2019-05-02T07:18:10.686Z,992.01
2019-05-02T07:19:06.965Z,991.97
2019-05-02T07:20:05.941Z,991.93
2019-05-02T07:21:05.880Z,991.86
2019-05-02T07:22:05.870Z,991.91
2019-05-02T07:23:10.540Z,991.86
2019-05-02T07:24:06.845Z,991.86
2019-05-02T07:25:06.974Z,991.92
2019-05-02T07:26:05.826Z,991.93
2019-05-02T07:27:05.810Z,991.89
2019-05-02T07:28:09.520Z,991.91
2019-05-02T07:29:05.787Z,991.92
2019-05-02T07:30:05.785Z,991.92
2019-05-02T07:31:06.512Z,991.91
2019-05-02T07:32:06.752Z,991.83
2019-05-02T07:33:05.742Z,991.73
2019-05-02T07:34:08.132Z,991.84
2019-05-02T07:35:06.724Z,991.95
2019-05-02T07:36:05.720Z,991.89
2019-05-02T07:37:08.346Z,991.83
2019-05-02T07:38:06.687Z,991.83
2019-05-02T07:39:06.414Z,991.87
2019-05-02T07:40:05.666Z,991.88
2019-05-02T07:41:05.649Z,991.89
2019-05-02T07:42:07.697Z,991.83
2019-05-02T07:43:05.695Z,991.78
2019-05-02T07:44:05.619Z,991.93
2019-05-02T07:45:09.512Z,991.80
2019-05-02T07:46:06.591Z,991.87
2019-05-02T07:47:05.595Z,991.87
2019-05-02T07:48:05.574Z,991.90
2019-05-02T07:49:05.624Z,991.90
2019-05-02T07:50:10.397Z,991.90
2019-05-02T07:51:06.550Z,991.78
2019-05-02T07:52:05.578Z,991.83
2019-05-02T07:53:09.516Z,991.79
2019-05-02T07:54:06.568Z,991.84
2019-05-02T07:55:07.381Z,991.87
2019-05-02T07:56:05.487Z,991.86
2019-05-02T07:57:05.471Z,991.88
2019-05-02T07:58:07.005Z,991.90
2019-05-02T07:59:05.448Z,991.81
2019-05-02T08:00:05.516Z,991.81
2019-05-02T08:01:08.200Z,991.77
2019-05-02T08:02:06.410Z,991.81
2019-05-02T08:03:05.408Z,991.70
2019-05-02T08:04:11.104Z,991.76
2019-05-02T08:05:08.831Z,991.70
2019-05-02T08:06:05.371Z,991.77
2019-05-02T08:07:05.356Z,991.80
2019-05-02T08:08:05.351Z,991.75
2019-05-02T08:09:07.060Z,991.67
2019-05-02T08:10:05.324Z,991.77
2019-05-02T08:11:05.529Z,991.75
2019-05-02T08:12:05.296Z,991.74
2019-05-02T08:13:05.284Z,991.74
2019-05-02T08:14:05.273Z,991.70
2019-05-02T08:15:07.462Z,991.75
2019-05-02T08:16:06.326Z,991.65
2019-05-02T08:17:06.207Z,991.65
2019-05-02T08:18:06.232Z,991.66
2019-05-02T08:19:05.731Z,991.63
2019-05-02T08:20:08.406Z,991.67
2019-05-02T08:21:05.196Z,991.60
2019-05-02T08:22:12.981Z,991.66
2019-05-02T08:23:06.171Z,991.66
2019-05-02T08:24:05.163Z,991.65
2019-05-02T08:25:10.543Z,991.65
2019-05-02T08:26:06.140Z,991.70
2019-05-02T08:27:05.129Z,991.66
2019-05-02T08:28:09.913Z,991.60
2019-05-02T08:29:06.105Z,991.66
2019-05-02T08:30:05.887Z,991.66
2019-05-02T08:31:05.085Z,991.70
2019-05-02T08:32:05.072Z,991.68
2019-05-02T08:33:05.060Z,991.63
2019-05-02T08:34:14.148Z,991.66
2019-05-02T08:35:06.036Z,991.65
2019-05-02T08:36:05.027Z,991.71
2019-05-02T08:37:05.098Z,991.63
2019-05-02T08:38:05.003Z,991.62
2019-05-02T08:39:04.994Z,991.55
2019-05-02T08:40:10.000Z,991.56
2019-05-02T08:41:05.974Z,991.65
2019-05-02T08:42:04.958Z,991.64
2019-05-02T08:43:09.412Z,991.60
2019-05-02T08:44:05.935Z,991.64
2019-05-02T08:45:04.925Z,991.69
2019-05-02T08:46:09.344Z,991.65
2019-05-02T08:47:17.819Z,991.71
2019-05-02T08:48:06.552Z,991.70
2019-05-02T08:49:04.880Z,991.65
2019-05-02T08:50:07.620Z,991.68
2019-05-02T08:51:04.856Z,991.57
2019-05-02T08:52:04.916Z,991.65
2019-05-02T08:53:04.831Z,991.64
2019-05-02T08:54:04.823Z,991.69
2019-05-02T08:55:09.759Z,991.70
2019-05-02T08:56:05.798Z,991.64
2019-05-02T08:57:04.785Z,991.67
2019-05-02T08:58:06.514Z,991.65
2019-05-02T08:59:05.764Z,991.61
2019-05-02T09:00:04.754Z,991.63
2019-05-02T09:01:09.291Z,991.65
2019-05-02T09:02:05.729Z,991.66
2019-05-02T09:03:04.868Z,991.61
2019-05-02T09:04:04.781Z,991.63
2019-05-02T09:05:04.927Z,991.61
2019-05-02T09:06:06.173Z,991.60
2019-05-02T09:07:04.709Z,991.55
2019-05-02T09:08:04.673Z,991.57
2019-05-02T09:09:04.651Z,991.51
2019-05-02T09:10:05.824Z,991.58
2019-05-02T09:11:04.628Z,991.61
2019-05-02T09:12:12.313Z,991.56
2019-05-02T09:13:05.605Z,991.64
2019-05-02T09:14:04.597Z,991.53
2019-05-02T09:15:04.593Z,991.58
2019-05-02T09:16:06.022Z,991.53
2019-05-02T09:17:08.525Z,991.60
2019-05-02T09:18:05.550Z,991.51
2019-05-02T09:19:04.538Z,991.54
2019-05-02T09:20:10.652Z,991.60
2019-05-02T09:21:05.581Z,991.45
2019-05-02T09:22:07.605Z,991.54
2019-05-02T09:23:05.490Z,991.57
2019-05-02T09:24:08.480Z,991.52
2019-05-02T09:25:05.520Z,991.48
2019-05-02T09:26:04.463Z,991.48
2019-05-02T09:27:04.661Z,991.49
2019-05-02T09:28:04.459Z,991.48
2019-05-02T09:29:05.510Z,991.48
2019-05-02T09:30:04.413Z,991.51
2019-05-02T09:31:06.608Z,991.50
2019-05-02T09:32:04.397Z,991.51
2019-05-02T09:33:06.516Z,991.41
2019-05-02T09:34:04.379Z,991.48
2019-05-02T09:35:06.129Z,991.50
2019-05-02T09:36:04.370Z,991.55
2019-05-02T09:37:04.336Z,991.56
2019-05-02T09:38:04.371Z,991.46
2019-05-02T09:39:04.701Z,991.56
2019-05-02T09:40:07.008Z,991.51
2019-05-02T09:41:16.144Z,991.49
2019-05-02T09:42:06.771Z,991.46
2019-05-02T09:43:05.268Z,991.51
2019-05-02T09:44:04.256Z,991.50
2019-05-02T09:45:04.323Z,991.48
2019-05-02T09:46:07.350Z,991.57
2019-05-02T09:47:05.224Z,991.49
2019-05-02T09:48:07.731Z,991.51
2019-05-02T09:49:09.676Z,991.60
2019-05-02T09:50:05.562Z,991.61
2019-05-02T09:51:11.607Z,991.54
2019-05-02T09:52:05.194Z,991.56
2019-05-02T09:53:04.158Z,991.45
2019-05-02T09:54:06.342Z,991.46
2019-05-02T09:55:04.134Z,991.51
2019-05-02T09:56:04.334Z,991.49
2019-05-02T09:57:04.113Z,991.46
2019-05-02T09:58:04.105Z,991.51
2019-05-02T09:59:23.290Z,991.56
2019-05-02T10:00:05.076Z,991.51
2019-05-02T10:01:04.067Z,991.50
2019-05-02T10:02:04.124Z,991.42
2019-05-02T10:03:04.046Z,991.39
2019-05-02T10:04:04.041Z,991.45
2019-05-02T10:05:04.033Z,991.37
2019-05-02T10:06:08.086Z,991.44
2019-05-02T10:07:04.009Z,991.35
2019-05-02T10:08:06.892Z,991.41
2019-05-02T10:09:04.979Z,991.40
2019-05-02T10:10:06.520Z,991.32
2019-05-02T10:11:03.960Z,991.37
2019-05-02T10:12:03.943Z,991.26
2019-05-02T10:13:03.932Z,991.33
2019-05-02T10:14:03.986Z,991.33
2019-05-02T10:15:03.932Z,991.31
2019-05-02T10:16:03.922Z,991.38
2019-05-02T10:17:07.154Z,991.35
2019-05-02T10:18:11.076Z,991.41
2019-05-02T10:19:09.451Z,991.30
2019-05-02T10:20:04.857Z,991.34
2019-05-02T10:21:07.915Z,991.34
2019-05-02T10:22:04.833Z,991.29
2019-05-02T10:23:03.822Z,991.33
2019-05-02T10:24:03.913Z,991.27
2019-05-02T10:25:03.867Z,991.30
2019-05-02T10:26:03.866Z,991.33
2019-05-02T10:27:08.372Z,991.28
2019-05-02T10:28:03.766Z,991.16
2019-05-02T10:29:03.756Z,991.23
2019-05-02T10:30:11.799Z,991.21
2019-05-02T10:31:04.799Z,991.22
2019-05-02T10:32:07.595Z,991.29
2019-05-02T10:33:04.712Z,991.26
2019-05-02T10:34:03.701Z,991.08
2019-05-02T10:35:03.692Z,991.15
2019-05-02T10:36:03.680Z,991.20
2019-05-02T10:37:03.878Z,991.11
2019-05-02T10:38:03.658Z,991.22
2019-05-02T10:39:03.651Z,991.14
2019-05-02T10:40:07.914Z,991.13
2019-05-02T10:41:04.949Z,991.14
2019-05-02T10:42:03.618Z,991.13
2019-05-02T10:43:03.669Z,991.13
2019-05-02T10:44:03.591Z,991.12
2019-05-02T10:45:07.455Z,991.09
2019-05-02T10:46:04.572Z,991.12
2019-05-02T10:47:03.560Z,991.14
2019-05-02T10:48:03.548Z,991.19
2019-05-02T10:49:03.606Z,991.08
2019-05-02T10:50:03.525Z,991.21
2019-05-02T10:51:03.516Z,991.17
2019-05-02T10:52:03.506Z,991.12
2019-05-02T10:53:11.098Z,991.19
2019-05-02T10:54:04.551Z,991.21
2019-05-02T10:55:03.493Z,991.15
2019-05-02T10:56:03.460Z,991.20
2019-05-02T10:57:03.452Z,991.17
2019-05-02T10:58:03.448Z,991.14
2019-05-02T10:59:03.425Z,991.14
2019-05-02T11:00:03.481Z,991.06
2019-05-02T11:01:03.405Z,990.97
2019-05-02T11:02:03.425Z,991.12
2019-05-02T11:03:03.383Z,991.10
2019-05-02T11:04:03.374Z,991.12
2019-05-02T11:05:03.361Z,991.12
2019-05-02T11:06:07.508Z,991.06
2019-05-02T11:07:03.363Z,991.06
2019-05-02T11:08:06.169Z,991.04
2019-05-02T11:09:06.188Z,991.05
2019-05-02T11:10:06.791Z,991.08
2019-05-02T11:11:06.140Z,991.00
2019-05-02T11:12:03.495Z,990.95
2019-05-02T11:13:03.275Z,990.99
2019-05-02T11:14:05.750Z,991.00
2019-05-02T11:15:03.253Z,991.06
2019-05-02T11:16:03.243Z,991.04
2019-05-02T11:17:03.240Z,991.04
2019-05-02T11:18:03.286Z,991.06
2019-05-02T11:19:03.211Z,991.00
2019-05-02T11:20:03.199Z,990.93
2019-05-02T11:21:07.259Z,990.93
2019-05-02T11:22:04.179Z,990.95
2019-05-02T11:23:03.167Z,990.94
2019-05-02T11:24:03.253Z,990.84
2019-05-02T11:25:03.146Z,990.84
2019-05-02T11:26:03.135Z,990.88
2019-05-02T11:27:03.124Z,990.91
2019-05-02T11:28:07.079Z,990.90
2019-05-02T11:29:03.248Z,990.94
2019-05-02T11:30:03.178Z,990.92
2019-05-02T11:31:06.860Z,990.85
2019-05-02T11:32:04.069Z,990.85
2019-05-02T11:33:03.260Z,990.84
2019-05-02T11:34:03.054Z,990.86
2019-05-02T11:35:03.142Z,990.92
2019-05-02T11:36:03.090Z,990.83
2019-05-02T11:37:03.016Z,990.87
2019-05-02T11:38:03.109Z,990.89
2019-05-02T11:39:13.244Z,990.84
2019-05-02T11:40:06.195Z,990.76
2019-05-02T11:41:02.973Z,990.88
2019-05-02T11:42:03.030Z,990.89
2019-05-02T11:43:06.642Z,990.81
2019-05-02T11:44:03.127Z,990.74
2019-05-02T11:45:02.934Z,990.64
2019-05-02T11:46:07.218Z,990.63
2019-05-02T11:47:02.910Z,990.80
2019-05-02T11:48:09.359Z,990.82
2019-05-02T11:49:03.885Z,990.76
2019-05-02T11:50:02.876Z,990.77
2019-05-02T11:51:07.257Z,990.80
2019-05-02T11:52:04.678Z,990.44
2019-05-02T11:53:03.006Z,990.81
2019-05-02T11:54:05.216Z,990.73
2019-05-02T11:55:03.820Z,990.78
2019-05-02T11:56:07.243Z,990.73
2019-05-02T11:57:02.802Z,990.75
2019-05-02T11:58:08.334Z,990.73
2019-05-02T11:59:03.845Z,990.40
2019-05-02T12:00:04.930Z,990.69
2019-05-02T12:01:05.404Z,990.71
2019-05-02T12:02:02.838Z,990.43
2019-05-02T12:03:02.736Z,990.48
2019-05-02T12:04:03.090Z,990.43
2019-05-02T12:05:02.781Z,990.44
2019-05-02T12:06:06.738Z,990.65
2019-05-02T12:07:04.862Z,990.71
2019-05-02T12:08:07.801Z,990.71
2019-05-02T12:09:03.669Z,990.64
2019-05-02T12:10:04.666Z,990.72
2019-05-02T12:11:03.884Z,990.58
2019-05-02T12:12:02.714Z,990.79
2019-05-02T12:13:06.486Z,990.78
2019-05-02T12:14:03.658Z,990.66
2019-05-02T12:15:02.652Z,990.43
2019-05-02T12:16:02.789Z,990.47
2019-05-02T12:17:02.733Z,990.45
2019-05-02T12:18:02.597Z,990.37
2019-05-02T12:19:11.372Z,990.38
2019-05-02T12:20:03.554Z,990.45
2019-05-02T12:21:02.753Z,990.35
2019-05-02T12:22:02.781Z,990.39
2019-05-02T12:23:02.594Z,990.43
2019-05-02T12:24:02.539Z,990.39
2019-05-02T12:25:02.986Z,990.38
2019-05-02T12:26:02.846Z,990.31
2019-05-02T12:27:02.633Z,990.40
2019-05-02T12:28:02.486Z,990.36